Time;durP1;ratioP1;P1;durP2;ratioP2;P2;SDS_P1;SDS_P2;PMS_P1;PMS_P2;Temp;Humidity;BMP_temperature;BMP_pressure;BME280_temperature;BME280_humidity;BME280_pressure;Samples;Min_cycle;Max_cycle;Signal;HPM_P1;HPM_P2
2023/08/18 00:11:50;;;;;;;9.90;7.13;;;;;;;19.28;75.95;100459.59;30602062;28;96742;-69
2023/08/18 00:26:50;;;;;;;8.32;6.80;;;;;;;19.23;76.50;100437.88;30602528;28;96849;-69
2023/08/18 00:41:51;;;;;;;10.35;7.15;;;;;;;19.23;76.82;100437.03;30601620;28;101729;-69
2023/08/18 00:56:51;;;;;;;11.32;7.82;;;;;;;19.14;77.15;100435.66;30598761;28;102827;-69
2023/08/18 01:12:06;;;;;;;10.65;8.18;;;;;;;18.87;77.44;100420.47;30597600;28;97103;-69
2023/08/18 01:27:07;;;;;;;11.67;7.87;;;;;;;18.76;78.01;100403.09;30594413;28;98509;-69
2023/08/18 01:42:07;;;;;;;11.88;8.35;;;;;;;18.68;78.61;100399.84;30595491;28;96815;-68
2023/08/18 01:57:08;;;;;;;13.27;9.27;;;;;;;18.59;78.93;100392.03;30593993;28;97364;-69
2023/08/18 02:12:09;;;;;;;11.03;8.70;;;;;;;18.49;79.18;100375.47;30593029;28;96755;-68
2023/08/18 02:27:09;;;;;;;10.65;8.55;;;;;;;18.41;79.38;100381.13;30593026;28;103538;-68
2023/08/18 02:42:09;;;;;;;10.32;8.55;;;;;;;18.36;79.71;100367.50;30603796;28;102980;-68
2023/08/18 02:57:10;;;;;;;15.48;9.23;;;;;;;18.30;80.11;100376.44;30609781;28;97189;-68
2023/08/18 03:12:10;;;;;;;11.57;8.82;;;;;;;18.27;80.51;100386.63;30608233;28;96825;-68
2023/08/18 03:27:10;;;;;;;12.38;9.07;;;;;;;18.22;80.12;100407.19;30605480;28;96793;-68
2023/08/18 03:42:11;;;;;;;13.32;9.02;;;;;;;18.13;80.52;100389.63;30604459;28;108548;-68
2023/08/18 03:57:12;;;;;;;12.43;8.20;;;;;;;18.08;80.63;100379.47;30604371;28;96639;-68
2023/08/18 04:12:12;;;;;;;11.80;8.43;;;;;;;18.09;81.01;100383.81;30600650;28;97454;-68
2023/08/18 04:27:13;;;;;;;10.57;9.18;;;;;;;18.21;80.86;100389.38;30598162;28;99117;-69
2023/08/18 04:42:13;;;;;;;11.00;6.87;;;;;;;18.42;80.91;100372.81;30596835;28;97234;-69
2023/08/18 04:57:14;;;;;;;11.23;7.95;;;;;;;18.78;80.79;100386.69;30592043;28;111599;-68
2023/08/18 05:12:14;;;;;;;10.43;8.35;;;;;;;19.06;80.25;100415.16;30595432;28;109239;-70
2023/08/18 05:27:16;;;;;;;10.00;7.68;;;;;;;19.44;79.64;100442.00;30594957;28;96759;-68
2023/08/18 05:42:16;;;;;;;9.43;7.40;;;;;;;20.17;79.68;100447.69;30589849;28;97012;-71
2023/08/18 05:57:16;;;;;;;9.00;7.57;;;;;;;21.08;78.50;100460.38;30588599;28;101956;-69
2023/08/18 06:12:17;;;;;;;12.33;8.83;;;;;;;21.57;76.90;100469.13;30594274;28;110788;-71
2023/08/18 06:27:17;;;;;;;7.07;6.25;;;;;;;22.24;75.57;100459.69;30608684;28;97327;-71
2023/08/18 06:42:17;;;;;;;;;;;;;;;22.79;72.64;100458.28;30607123;28;97395;-71
2023/08/18 06:57:18;;;;;;;10.20;6.23;;;;;;;22.70;71.90;100448.06;30605138;28;96830;-70
2023/08/18 07:12:18;;;;;;;7.50;6.45;;;;;;;23.29;70.06;100462.13;30604198;28;110894;-70
2023/08/18 07:27:18;;;;;;;8.00;6.50;;;;;;;23.55;69.24;100453.50;30602839;28;97939;-72
2023/08/18 07:42:19;;;;;;;8.45;5.95;;;;;;;23.56;67.38;100445.09;30599852;28;109688;-73
2023/08/18 07:57:20;;;;;;;9.90;6.63;;;;;;;23.93;66.47;100444.53;30599518;28;97362;-77
2023/08/18 08:12:20;;;;;;;7.38;6.47;;;;;;;24.28;65.59;100467.00;30598035;28;97350;-74
2023/08/18 08:27:20;;;;;;;10.48;6.72;;;;;;;25.01;63.65;100480.25;30596320;28;106635;-71
2023/08/18 08:42:23;;;;;;;6.77;5.63;;;;;;;26.28;61.23;100462.19;30593982;28;97320;-73
2023/08/18 08:57:23;;;;;;;8.53;6.00;;;;;;;28.48;57.85;100462.19;30593642;28;97121;-72
2023/08/18 09:12:30;;;;;;;8.88;5.85;;;;;;;31.68;50.88;100450.72;30594281;28;97243;-71
2023/08/18 09:27:30;;;;;;;;;;;;;;;35.63;38.58;100433.59;30592136;28;97236;-72
2023/08/18 09:42:30;;;;;;;6.72;5.18;;;;;;;36.88;36.65;100408.19;30593551;28;96862;-75
2023/08/18 09:57:37;;;;;;;5.68;4.45;;;;;;;33.34;38.40;100404.41;30618518;28;97482;-71
2023/08/18 10:12:37;;;;;;;6.67;5.03;;;;;;;31.41;41.42;100384.63;30670444;28;97175;-73
2023/08/18 10:27:40;;;;;;;9.43;6.15;;;;;;;31.45;42.07;100374.66;30623942;28;97757;-72
2023/08/18 10:42:41;;;;;;;8.13;5.47;;;;;;;32.02;41.47;100377.03;30615590;28;97481;-69
2023/08/18 10:57:42;;;;;;;10.88;6.13;;;;;;;33.07;40.35;100377.81;30614191;28;98316;-72
2023/08/18 11:12:43;;;;;;;6.83;5.80;;;;;;;33.68;39.80;100371.66;30609526;28;97798;-71
2023/08/18 11:27:46;;;;;;;8.73;5.37;;;;;;;34.58;38.15;100360.03;30613572;28;98522;-69
2023/08/18 11:42:52;;;;;;;8.23;5.67;;;;;;;36.14;36.20;100363.50;30646883;28;97340;-69
2023/08/18 11:57:52;;;;;;;7.90;5.33;;;;;;;35.83;35.60;100365.53;30597093;28;97233;-72
2023/08/18 12:12:54;;;;;;;8.73;5.50;;;;;;;35.55;36.13;100356.91;30594450;28;109675;-67
2023/08/18 12:27:54;;;;;;;7.10;5.00;;;;;;;35.36;36.34;100363.72;30584151;28;97648;-71
2023/08/18 12:42:55;;;;;;;11.77;5.95;;;;;;;35.59;35.70;100344.81;30587546;28;99286;-68
2023/08/18 12:57:56;;;;;;;9.83;5.13;;;;;;;33.73;37.38;100339.19;30628348;28;98036;-67
2023/08/18 13:12:56;;;;;;;7.85;5.88;;;;;;;32.77;39.67;100321.50;30593682;28;106327;-73
2023/08/18 13:27:56;;;;;;;7.78;5.32;;;;;;;33.43;39.23;100315.28;30591005;28;99393;-68
2023/08/18 13:42:57;;;;;;;8.85;5.75;;;;;;;34.44;37.78;100304.09;30585223;28;96860;-70
2023/08/18 13:57:57;;;;;;;8.10;5.70;;;;;;;34.63;37.32;100287.13;30582678;28;101604;-67
2023/08/18 14:12:58;;;;;;;7.18;5.70;;;;;;;33.96;38.01;100285.78;30586239;28;98253;-71
2023/08/18 14:27:58;;;;;;;7.18;5.65;;;;;;;33.38;39.29;100302.41;30585182;28;97531;-72
2023/08/18 14:42:58;;;;;;;7.10;5.75;;;;;;;33.31;38.74;100311.19;30607700;28;97345;-69
2023/08/18 14:57:59;;;;;;;6.07;5.38;;;;;;;32.84;38.38;100284.03;30604252;28;97350;-77
2023/08/18 15:12:59;;;;;;;8.15;5.63;;;;;;;32.81;38.83;100275.63;30598416;28;97187;-73
2023/08/18 15:27:59;;;;;;;6.85;5.70;;;;;;;32.06;41.04;100279.66;30600923;28;97571;-74
2023/08/18 15:43:00;;;;;;;8.00;5.78;;;;;;;30.59;43.46;100272.25;30600353;28;108217;-78
2023/08/18 15:58:00;;;;;;;10.80;6.72;;;;;;;29.62;45.06;100267.19;30598821;28;104552;-79
2023/08/18 16:13:00;;;;;;;7.50;6.45;;;;;;;28.18;48.66;100274.22;30598855;28;109802;-80
2023/08/18 16:28:01;;;;;;;6.90;6.18;;;;;;;27.20;51.95;100288.41;30602178;28;97954;-80
2023/08/18 16:43:02;;;;;;;13.52;8.32;;;;;;;26.15;54.77;100318.03;30597907;28;97162;-76
2023/08/18 16:58:03;;;;;;;9.63;8.27;;;;;;;25.51;58.00;100303.66;30595549;28;97348;-70
2023/08/18 17:13:05;;;;;;;12.38;9.10;;;;;;;24.93;59.94;100304.44;30595151;28;97916;-70
2023/08/18 17:28:05;;;;;;;12.87;8.63;;;;;;;24.87;61.43;100342.81;30589185;28;97683;-71
2023/08/18 17:43:06;;;;;;;11.60;9.93;;;;;;;24.99;63.54;100330.63;30590937;28;97378;-77
2023/08/18 17:58:07;;;;;;;13.57;10.13;;;;;;;24.90;64.23;100381.25;30593053;28;111348;-71
2023/08/18 18:13:07;;;;;;;8.55;6.15;;;;;;;23.75;65.68;100368.66;30603919;28;97184;-73
2023/08/18 18:28:08;;;;;;;6.97;4.40;;;;;;;22.93;65.22;100355.56;30611471;28;96727;-73
2023/08/18 18:43:08;;;;;;;6.25;4.72;;;;;;;22.85;64.88;100342.41;30607534;28;97086;-70
2023/08/18 18:58:09;;;;;;;6.15;5.00;;;;;;;22.78;64.67;100353.44;30551687;28;98516;-70
2023/08/18 19:13:09;;;;;;;;;;;;;;;23.18;65.46;100339.91;30607077;28;97975;-71
2023/08/18 19:28:09;;;;;;;8.93;6.95;;;;;;;23.18;65.22;100340.72;30717311;28;97387;-70
2023/08/18 19:43:10;;;;;;;8.27;7.40;;;;;;;23.17;65.29;100347.25;30715471;28;97149;-69
2023/08/18 19:58:10;;;;;;;8.60;7.32;;;;;;;22.93;65.94;100350.13;30594472;28;98589;-70
2023/08/18 20:13:11;;;;;;;9.77;8.40;;;;;;;22.82;66.76;100342.91;30592843;28;97412;-69
2023/08/18 20:28:11;;;;;;;11.60;8.07;;;;;;;22.79;67.60;100332.53;30592209;28;97733;-71
2023/08/18 20:43:12;;;;;;;11.38;9.00;;;;;;;22.71;67.90;100341.09;30624937;28;98056;-70
2023/08/18 20:58:12;;;;;;;10.70;9.20;;;;;;;22.58;68.56;100345.81;30707734;28;103022;-68
2023/08/18 21:13:13;;;;;;;;;;;;;;;22.61;69.30;100360.78;30699576;28;97472;-69
2023/08/18 21:28:13;;;;;;;;;;;;;;;22.44;69.59;100363.47;30707203;28;97399;-70
2023/08/18 21:43:13;;;;;;;12.47;10.63;;;;;;;22.30;70.28;100350.16;30708085;28;98181;-70
2023/08/18 21:58:13;;;;;;;;;;;;;;;21.66;71.14;100341.38;30640098;28;111179;-71
2023/08/18 22:13:14;;;;;;;14.60;12.80;;;;;;;21.13;72.61;100338.59;30591633;28;97280;-71
2023/08/18 22:28:14;;;;;;;15.75;12.65;;;;;;;21.47;74.51;100331.50;30588762;28;96863;-72
2023/08/18 22:43:15;;;;;;;14.50;11.70;;;;;;;21.34;73.84;100328.19;30590923;28;99857;-70
2023/08/18 22:58:15;;;;;;;15.63;13.93;;;;;;;21.14;74.31;100329.41;30600274;28;109299;-69
2023/08/18 23:13:15;;;;;;;15.23;13.73;;;;;;;20.97;74.79;100329.31;30595059;28;97985;-72
2023/08/18 23:28:16;;;;;;;15.67;13.27;;;;;;;21.22;76.35;100334.47;30599919;28;98246;-68
2023/08/18 23:43:17;;;;;;;13.15;11.05;;;;;;;22.38;75.72;100334.59;30692752;28;97668;-69
2023/08/18 23:58:17;;;;;;;;;;;;;;;22.83;73.60;100347.28;30724657;28;97707;-70
